sensor_id;sensor_type;location;lat;lon;timestamp;P1;durP1;ratioP1;P2;durP2;ratioP2
29908;SDS011;36247;51.952;6.146;2024-03-23T00:55:48;28.17;;;8.15;;
29908;SDS011;36247;51.952;6.146;2024-03-23T00:58:14;26.42;;;8.63;;
29908;SDS011;36247;51.952;6.146;2024-03-23T01:00:39;26.90;;;8.48;;
29908;SDS011;36247;51.952;6.146;2024-03-23T01:03:05;33.63;;;8.95;;
29908;SDS011;36247;51.952;6.146;2024-03-23T01:05:30;32.08;;;8.27;;
29908;SDS011;36247;51.952;6.146;2024-03-23T01:07:55;25.50;;;7.63;;
29908;SDS011;36247;51.952;6.146;2024-03-23T01:10:21;28.48;;;10.10;;
29908;SDS011;36247;51.952;6.146;2024-03-23T01:12:46;33.53;;;8.50;;
29908;SDS011;36247;51.952;6.146;2024-03-23T01:15:11;26.30;;;8.48;;
29908;SDS011;36247;51.952;6.146;2024-03-23T01:17:37;22.27;;;9.05;;
29908;SDS011;36247;51.952;6.146;2024-03-23T01:20:02;27.75;;;9.07;;
29908;SDS011;36247;51.952;6.146;2024-03-23T01:22:28;22.75;;;8.07;;
29908;SDS011;36247;51.952;6.146;2024-03-23T01:24:53;24.30;;;8.45;;
29908;SDS011;36247;51.952;6.146;2024-03-23T01:27:19;23.95;;;7.68;;
29908;SDS011;36247;51.952;6.146;2024-03-23T01:29:44;20.67;;;7.53;;
29908;SDS011;36247;51.952;6.146;2024-03-23T01:32:09;29.58;;;8.25;;
29908;SDS011;36247;51.952;6.146;2024-03-23T01:34:35;22.88;;;7.43;;
29908;SDS011;36247;51.952;6.146;2024-03-23T01:37:00;28.17;;;8.38;;
29908;SDS011;36247;51.952;6.146;2024-03-23T01:39:25;15.98;;;6.45;;
29908;SDS011;36247;51.952;6.146;2024-03-23T01:41:51;20.58;;;6.78;;
29908;SDS011;36247;51.952;6.146;2024-03-23T01:44:16;24.15;;;7.32;;
29908;SDS011;36247;51.952;6.146;2024-03-23T01:46:42;20.45;;;7.00;;
29908;SDS011;36247;51.952;6.146;2024-03-23T01:49:08;16.70;;;6.53;;
29908;SDS011;36247;51.952;6.146;2024-03-23T01:51:36;21.17;;;6.03;;
29908;SDS011;36247;51.952;6.146;2024-03-23T01:54:02;22.45;;;6.80;;
29908;SDS011;36247;51.952;6.146;2024-03-23T01:56:31;17.45;;;6.43;;
29908;SDS011;36247;51.952;6.146;2024-03-23T01:59:06;23.20;;;6.85;;
29908;SDS011;36247;51.952;6.146;2024-03-23T02:01:32;18.63;;;6.93;;
29908;SDS011;36247;51.952;6.146;2024-03-23T02:04:01;22.15;;;7.03;;
29908;SDS011;36247;51.952;6.146;2024-03-23T02:06:27;17.23;;;6.93;;
29908;SDS011;36247;51.952;6.146;2024-03-23T02:08:53;18.88;;;7.35;;
29908;SDS011;36247;51.952;6.146;2024-03-23T02:11:19;23.50;;;7.15;;
29908;SDS011;36247;51.952;6.146;2024-03-23T02:13:44;19.42;;;6.70;;
29908;SDS011;36247;51.952;6.146;2024-03-23T02:16:10;26.08;;;7.53;;
29908;SDS011;36247;51.952;6.146;2024-03-23T02:18:35;23.40;;;6.70;;
29908;SDS011;36247;51.952;6.146;2024-03-23T02:21:01;27.45;;;8.55;;
29908;SDS011;36247;51.952;6.146;2024-03-23T02:23:26;20.88;;;6.43;;
29908;SDS011;36247;51.952;6.146;2024-03-23T02:25:52;16.60;;;6.78;;
29908;SDS011;36247;51.952;6.146;2024-03-23T02:28:18;22.33;;;7.28;;
29908;SDS011;36247;51.952;6.146;2024-03-23T02:30:44;26.73;;;7.88;;
29908;SDS011;36247;51.952;6.146;2024-03-23T02:33:09;22.75;;;7.65;;
29908;SDS011;36247;51.952;6.146;2024-03-23T02:35:35;16.92;;;7.40;;
29908;SDS011;36247;51.952;6.146;2024-03-23T02:38:00;19.38;;;8.38;;
29908;SDS011;36247;51.952;6.146;2024-03-23T02:40:26;23.77;;;8.70;;
29908;SDS011;36247;51.952;6.146;2024-03-23T02:42:51;27.63;;;7.88;;
29908;SDS011;36247;51.952;6.146;2024-03-23T02:45:17;25.08;;;8.18;;
29908;SDS011;36247;51.952;6.146;2024-03-23T02:47:43;23.23;;;8.25;;
29908;SDS011;36247;51.952;6.146;2024-03-23T02:50:08;36.22;;;9.30;;
29908;SDS011;36247;51.952;6.146;2024-03-23T02:52:34;20.77;;;8.63;;
29908;SDS011;36247;51.952;6.146;2024-03-23T02:55:01;28.23;;;8.52;;
29908;SDS011;36247;51.952;6.146;2024-03-23T02:57:29;29.55;;;9.18;;
29908;SDS011;36247;51.952;6.146;2024-03-23T02:59:55;32.47;;;10.27;;
29908;SDS011;36247;51.952;6.146;2024-03-23T03:02:20;21.40;;;9.15;;
29908;SDS011;36247;51.952;6.146;2024-03-23T03:04:46;22.92;;;8.13;;
29908;SDS011;36247;51.952;6.146;2024-03-23T03:07:12;18.95;;;8.23;;
29908;SDS011;36247;51.952;6.146;2024-03-23T03:09:37;31.85;;;8.38;;
29908;SDS011;36247;51.952;6.146;2024-03-23T03:12:04;25.60;;;8.85;;
29908;SDS011;36247;51.952;6.146;2024-03-23T03:14:30;30.38;;;8.88;;
29908;SDS011;36247;51.952;6.146;2024-03-23T03:16:56;39.33;;;9.15;;
29908;SDS011;36247;51.952;6.146;2024-03-23T03:19:21;27.42;;;9.07;;
29908;SDS011;36247;51.952;6.146;2024-03-23T03:21:46;26.60;;;10.00;;
29908;SDS011;36247;51.952;6.146;2024-03-23T03:24:13;26.88;;;10.65;;
29908;SDS011;36247;51.952;6.146;2024-03-23T03:26:38;29.48;;;10.70;;
29908;SDS011;36247;51.952;6.146;2024-03-23T03:29:04;36.60;;;10.55;;
29908;SDS011;36247;51.952;6.146;2024-03-23T03:31:29;33.17;;;11.88;;
29908;SDS011;36247;51.952;6.146;2024-03-23T03:33:55;23.25;;;10.13;;
29908;SDS011;36247;51.952;6.146;2024-03-23T03:36:20;28.17;;;12.20;;
29908;SDS011;36247;51.952;6.146;2024-03-23T03:38:46;42.15;;;11.73;;
29908;SDS011;36247;51.952;6.146;2024-03-23T03:41:11;29.40;;;11.23;;
29908;SDS011;36247;51.952;6.146;2024-03-23T03:43:36;39.13;;;13.57;;
29908;SDS011;36247;51.952;6.146;2024-03-23T03:46:03;30.88;;;12.52;;
29908;SDS011;36247;51.952;6.146;2024-03-23T03:48:28;29.40;;;13.07;;
29908;SDS011;36247;51.952;6.146;2024-03-23T03:50:54;26.42;;;12.35;;
29908;SDS011;36247;51.952;6.146;2024-03-23T03:53:20;32.17;;;12.55;;
29908;SDS011;36247;51.952;6.146;2024-03-23T03:55:46;32.05;;;11.93;;
29908;SDS011;36247;51.952;6.146;2024-03-23T03:58:11;36.03;;;13.38;;
29908;SDS011;36247;51.952;6.146;2024-03-23T04:00:37;35.25;;;14.05;;
29908;SDS011;36247;51.952;6.146;2024-03-23T04:03:02;39.33;;;13.95;;
29908;SDS011;36247;51.952;6.146;2024-03-23T04:05:28;29.25;;;13.05;;
29908;SDS011;36247;51.952;6.146;2024-03-23T04:07:53;38.20;;;13.98;;
29908;SDS011;36247;51.952;6.146;2024-03-23T04:10:19;35.28;;;14.63;;
29908;SDS011;36247;51.952;6.146;2024-03-23T04:12:45;38.13;;;15.70;;
29908;SDS011;36247;51.952;6.146;2024-03-23T04:15:11;36.65;;;13.52;;
29908;SDS011;36247;51.952;6.146;2024-03-23T04:17:36;41.25;;;15.32;;
29908;SDS011;36247;51.952;6.146;2024-03-23T04:20:02;47.05;;;15.15;;
29908;SDS011;36247;51.952;6.146;2024-03-23T04:22:30;42.60;;;14.77;;
29908;SDS011;36247;51.952;6.146;2024-03-23T04:24:56;35.38;;;13.85;;
29908;SDS011;36247;51.952;6.146;2024-03-23T04:27:22;46.90;;;15.13;;
29908;SDS011;36247;51.952;6.146;2024-03-23T04:29:51;39.08;;;13.68;;
29908;SDS011;36247;51.952;6.146;2024-03-23T04:32:17;36.47;;;14.90;;
29908;SDS011;36247;51.952;6.146;2024-03-23T04:34:43;33.50;;;13.90;;
29908;SDS011;36247;51.952;6.146;2024-03-23T04:37:09;36.35;;;13.70;;
29908;SDS011;36247;51.952;6.146;2024-03-23T04:39:38;38.40;;;14.18;;
29908;SDS011;36247;51.952;6.146;2024-03-23T04:42:03;32.38;;;14.15;;
29908;SDS011;36247;51.952;6.146;2024-03-23T04:44:29;31.13;;;13.80;;
29908;SDS011;36247;51.952;6.146;2024-03-23T04:46:56;30.38;;;12.50;;
29908;SDS011;36247;51.952;6.146;2024-03-23T04:49:23;36.35;;;14.13;;
29908;SDS011;36247;51.952;6.146;2024-03-23T04:51:49;29.83;;;12.75;;
29908;SDS011;36247;51.952;6.146;2024-03-23T04:54:15;33.55;;;14.02;;
29908;SDS011;36247;51.952;6.146;2024-03-23T04:56:40;34.80;;;13.52;;
29908;SDS011;36247;51.952;6.146;2024-03-23T04:59:06;38.85;;;15.27;;
29908;SDS011;36247;51.952;6.146;2024-03-23T05:01:32;33.53;;;13.05;;
29908;SDS011;36247;51.952;6.146;2024-03-23T05:04:02;37.22;;;14.35;;
29908;SDS011;36247;51.952;6.146;2024-03-23T05:06:27;36.65;;;12.63;;
29908;SDS011;36247;51.952;6.146;2024-03-23T05:08:52;32.78;;;13.90;;
29908;SDS011;36247;51.952;6.146;2024-03-23T05:11:18;39.70;;;13.82;;
29908;SDS011;36247;51.952;6.146;2024-03-23T05:13:43;26.92;;;11.05;;
29908;SDS011;36247;51.952;6.146;2024-03-23T05:16:09;34.08;;;10.65;;
29908;SDS011;36247;51.952;6.146;2024-03-23T05:18:35;30.58;;;10.35;;
29908;SDS011;36247;51.952;6.146;2024-03-23T05:21:00;35.92;;;11.48;;
29908;SDS011;36247;51.952;6.146;2024-03-23T05:23:26;32.15;;;11.43;;
29908;SDS011;36247;51.952;6.146;2024-03-23T05:25:53;34.17;;;10.23;;
29908;SDS011;36247;51.952;6.146;2024-03-23T05:28:19;29.85;;;10.05;;
29908;SDS011;36247;51.952;6.146;2024-03-23T05:30:55;23.80;;;10.10;;
29908;SDS011;36247;51.952;6.146;2024-03-23T05:33:22;37.97;;;10.85;;
29908;SDS011;36247;51.952;6.146;2024-03-23T05:35:55;23.00;;;8.60;;
29908;SDS011;36247;51.952;6.146;2024-03-23T05:38:25;31.90;;;10.05;;
29908;SDS011;36247;51.952;6.146;2024-03-23T05:40:58;32.70;;;8.77;;
29908;SDS011;36247;51.952;6.146;2024-03-23T05:43:25;32.35;;;9.13;;
29908;SDS011;36247;51.952;6.146;2024-03-23T05:45:57;24.80;;;8.93;;
29908;SDS011;36247;51.952;6.146;2024-03-23T05:48:24;31.20;;;8.23;;
29908;SDS011;36247;51.952;6.146;2024-03-23T05:50:50;23.75;;;7.90;;
29908;SDS011;36247;51.952;6.146;2024-03-23T05:53:16;19.23;;;6.63;;
29908;SDS011;36247;51.952;6.146;2024-03-23T05:55:43;20.73;;;6.55;;
29908;SDS011;36247;51.952;6.146;2024-03-23T05:58:08;30.75;;;7.55;;
29908;SDS011;36247;51.952;6.146;2024-03-23T06:00:34;28.67;;;7.18;;
29908;SDS011;36247;51.952;6.146;2024-03-23T06:02:59;18.17;;;7.60;;
29908;SDS011;36247;51.952;6.146;2024-03-23T06:05:24;24.65;;;8.18;;
29908;SDS011;36247;51.952;6.146;2024-03-23T06:07:50;20.50;;;6.68;;
29908;SDS011;36247;51.952;6.146;2024-03-23T06:10:15;22.88;;;7.35;;
29908;SDS011;36247;51.952;6.146;2024-03-23T06:12:41;25.27;;;8.38;;
29908;SDS011;36247;51.952;6.146;2024-03-23T06:15:06;23.92;;;6.60;;
29908;SDS011;36247;51.952;6.146;2024-03-23T06:17:38;18.85;;;5.68;;
29908;SDS011;36247;51.952;6.146;2024-03-23T06:20:03;17.67;;;4.97;;
29908;SDS011;36247;51.952;6.146;2024-03-23T06:22:31;20.38;;;6.47;;
29908;SDS011;36247;51.952;6.146;2024-03-23T06:24:56;25.10;;;6.15;;
29908;SDS011;36247;51.952;6.146;2024-03-23T06:27:22;17.15;;;5.70;;
29908;SDS011;36247;51.952;6.146;2024-03-23T06:29:47;13.38;;;5.22;;
29908;SDS011;36247;51.952;6.146;2024-03-23T06:32:13;20.65;;;5.38;;
29908;SDS011;36247;51.952;6.146;2024-03-23T06:34:40;19.33;;;5.13;;
29908;SDS011;36247;51.952;6.146;2024-03-23T06:37:07;21.60;;;6.35;;
29908;SDS011;36247;51.952;6.146;2024-03-23T06:39:34;19.10;;;5.05;;
29908;SDS011;36247;51.952;6.146;2024-03-23T06:42:00;26.73;;;6.35;;
29908;SDS011;36247;51.952;6.146;2024-03-23T06:44:26;14.88;;;4.88;;
29908;SDS011;36247;51.952;6.146;2024-03-23T06:46:51;18.98;;;5.53;;
29908;SDS011;36247;51.952;6.146;2024-03-23T06:49:16;19.10;;;5.38;;
29908;SDS011;36247;51.952;6.146;2024-03-23T06:51:42;23.25;;;5.40;;
29908;SDS011;36247;51.952;6.146;2024-03-23T06:54:07;21.98;;;5.90;;
29908;SDS011;36247;51.952;6.146;2024-03-23T06:56:33;17.45;;;5.25;;
29908;SDS011;36247;51.952;6.146;2024-03-23T06:58:58;13.85;;;4.93;;
29908;SDS011;36247;51.952;6.146;2024-03-23T07:01:24;16.13;;;5.93;;
29908;SDS011;36247;51.952;6.146;2024-03-23T07:03:50;17.45;;;5.03;;
29908;SDS011;36247;51.952;6.146;2024-03-23T07:06:15;16.92;;;4.97;;
29908;SDS011;36247;51.952;6.146;2024-03-23T07:08:40;16.77;;;5.82;;
29908;SDS011;36247;51.952;6.146;2024-03-23T07:11:06;17.42;;;5.22;;
29908;SDS011;36247;51.952;6.146;2024-03-23T07:13:31;20.60;;;5.35;;
29908;SDS011;36247;51.952;6.146;2024-03-23T07:15:57;14.07;;;4.45;;
29908;SDS011;36247;51.952;6.146;2024-03-23T07:18:23;18.00;;;5.10;;
29908;SDS011;36247;51.952;6.146;2024-03-23T07:21:06;17.77;;;4.32;;
29908;SDS011;36247;51.952;6.146;2024-03-23T07:23:32;18.98;;;4.43;;
29908;SDS011;36247;51.952;6.146;2024-03-23T07:25:58;16.20;;;5.18;;
29908;SDS011;36247;51.952;6.146;2024-03-23T07:28:24;13.65;;;4.40;;
29908;SDS011;36247;51.952;6.146;2024-03-23T07:31:01;19.20;;;5.43;;
29908;SDS011;36247;51.952;6.146;2024-03-23T07:33:30;17.17;;;4.97;;
29908;SDS011;36247;51.952;6.146;2024-03-23T07:35:56;21.25;;;5.38;;
29908;SDS011;36247;51.952;6.146;2024-03-23T07:38:21;17.85;;;5.47;;
29908;SDS011;36247;51.952;6.146;2024-03-23T07:40:47;20.33;;;5.32;;
29908;SDS011;36247;51.952;6.146;2024-03-23T07:43:15;14.85;;;4.22;;
29908;SDS011;36247;51.952;6.146;2024-03-23T07:45:40;15.80;;;4.43;;
29908;SDS011;36247;51.952;6.146;2024-03-23T07:48:05;11.70;;;4.60;;
29908;SDS011;36247;51.952;6.146;2024-03-23T07:50:31;14.13;;;4.88;;
29908;SDS011;36247;51.952;6.146;2024-03-23T07:52:57;12.38;;;4.53;;
29908;SDS011;36247;51.952;6.146;2024-03-23T07:55:22;20.67;;;5.28;;
29908;SDS011;36247;51.952;6.146;2024-03-23T07:57:47;18.27;;;4.78;;
29908;SDS011;36247;51.952;6.146;2024-03-23T08:00:13;17.08;;;5.13;;
29908;SDS011;36247;51.952;6.146;2024-03-23T08:02:39;23.45;;;5.32;;
29908;SDS011;36247;51.952;6.146;2024-03-23T08:05:04;11.90;;;4.55;;
29908;SDS011;36247;51.952;6.146;2024-03-23T08:07:30;20.67;;;5.93;;
29908;SDS011;36247;51.952;6.146;2024-03-23T08:09:55;18.35;;;5.05;;
29908;SDS011;36247;51.952;6.146;2024-03-23T08:12:20;14.23;;;4.20;;
29908;SDS011;36247;51.952;6.146;2024-03-23T08:14:46;13.68;;;5.18;;
29908;SDS011;36247;51.952;6.146;2024-03-23T08:17:11;16.02;;;4.75;;
29908;SDS011;36247;51.952;6.146;2024-03-23T08:19:36;10.70;;;4.35;;
29908;SDS011;36247;51.952;6.146;2024-03-23T08:22:02;13.13;;;3.80;;
29908;SDS011;36247;51.952;6.146;2024-03-23T08:24:27;17.88;;;4.78;;
29908;SDS011;36247;51.952;6.146;2024-03-23T08:26:54;13.18;;;4.57;;
29908;SDS011;36247;51.952;6.146;2024-03-23T08:29:19;16.05;;;4.85;;
29908;SDS011;36247;51.952;6.146;2024-03-23T08:31:45;14.60;;;4.50;;
29908;SDS011;36247;51.952;6.146;2024-03-23T08:34:10;10.07;;;3.90;;
29908;SDS011;36247;51.952;6.146;2024-03-23T08:36:36;16.63;;;4.18;;
29908;SDS011;36247;51.952;6.146;2024-03-23T08:39:01;15.48;;;4.32;;
29908;SDS011;36247;51.952;6.146;2024-03-23T08:41:27;16.95;;;5.25;;
29908;SDS011;36247;51.952;6.146;2024-03-23T08:43:52;19.27;;;4.55;;
29908;SDS011;36247;51.952;6.146;2024-03-23T08:46:17;17.65;;;4.78;;
29908;SDS011;36247;51.952;6.146;2024-03-23T08:48:46;9.52;;;3.95;;
29908;SDS011;36247;51.952;6.146;2024-03-23T08:51:14;17.25;;;4.05;;
29908;SDS011;36247;51.952;6.146;2024-03-23T08:53:41;11.10;;;4.10;;
29908;SDS011;36247;51.952;6.146;2024-03-23T08:56:08;12.98;;;3.88;;
29908;SDS011;36247;51.952;6.146;2024-03-23T08:58:34;13.05;;;3.70;;
29908;SDS011;36247;51.952;6.146;2024-03-23T09:01:05;10.25;;;3.47;;
29908;SDS011;36247;51.952;6.146;2024-03-23T09:03:34;16.95;;;4.18;;
29908;SDS011;36247;51.952;6.146;2024-03-23T09:06:00;15.80;;;3.50;;
29908;SDS011;36247;51.952;6.146;2024-03-23T09:08:27;10.68;;;3.47;;
29908;SDS011;36247;51.952;6.146;2024-03-23T09:10:52;17.35;;;3.92;;
29908;SDS011;36247;51.952;6.146;2024-03-23T09:13:18;17.45;;;3.42;;
29908;SDS011;36247;51.952;6.146;2024-03-23T09:15:47;7.30;;;2.35;;
29908;SDS011;36247;51.952;6.146;2024-03-23T09:18:14;7.90;;;2.80;;
29908;SDS011;36247;51.952;6.146;2024-03-23T09:20:39;9.57;;;2.95;;
29908;SDS011;36247;51.952;6.146;2024-03-23T09:23:05;13.65;;;3.33;;
29908;SDS011;36247;51.952;6.146;2024-03-23T09:25:30;2.97;;;1.95;;
29908;SDS011;36247;51.952;6.146;2024-03-23T09:27:55;7.78;;;2.40;;
29908;SDS011;36247;51.952;6.146;2024-03-23T09:30:21;10.73;;;2.45;;
29908;SDS011;36247;51.952;6.146;2024-03-23T09:32:46;8.05;;;2.60;;
29908;SDS011;36247;51.952;6.146;2024-03-23T09:35:12;11.48;;;3.28;;
29908;SDS011;36247;51.952;6.146;2024-03-23T09:37:40;9.82;;;3.00;;
29908;SDS011;36247;51.952;6.146;2024-03-23T09:40:14;11.63;;;3.63;;
29908;SDS011;36247;51.952;6.146;2024-03-23T09:42:40;5.25;;;1.80;;
29908;SDS011;36247;51.952;6.146;2024-03-23T09:45:14;4.95;;;2.22;;
29908;SDS011;36247;51.952;6.146;2024-03-23T09:47:46;9.55;;;2.85;;
29908;SDS011;36247;51.952;6.146;2024-03-23T09:50:12;8.35;;;2.78;;
29908;SDS011;36247;51.952;6.146;2024-03-23T09:52:38;10.23;;;2.65;;
29908;SDS011;36247;51.952;6.146;2024-03-23T09:55:04;10.02;;;3.63;;
29908;SDS011;36247;51.952;6.146;2024-03-23T09:57:30;7.63;;;2.78;;
29908;SDS011;36247;51.952;6.146;2024-03-23T09:59:55;6.75;;;2.40;;
29908;SDS011;36247;51.952;6.146;2024-03-23T10:02:22;15.02;;;3.10;;
29908;SDS011;36247;51.952;6.146;2024-03-23T10:04:48;7.68;;;2.60;;
29908;SDS011;36247;51.952;6.146;2024-03-23T10:07:14;8.13;;;2.15;;
29908;SDS011;36247;51.952;6.146;2024-03-23T10:09:42;5.90;;;2.47;;
29908;SDS011;36247;51.952;6.146;2024-03-23T10:12:11;10.98;;;2.45;;
29908;SDS011;36247;51.952;6.146;2024-03-23T10:14:39;5.22;;;2.35;;
29908;SDS011;36247;51.952;6.146;2024-03-23T10:17:11;6.75;;;2.42;;
29908;SDS011;36247;51.952;6.146;2024-03-23T10:19:47;14.65;;;3.33;;
29908;SDS011;36247;51.952;6.146;2024-03-23T10:22:21;9.85;;;3.00;;
29908;SDS011;36247;51.952;6.146;2024-03-23T10:24:48;8.43;;;3.55;;
29908;SDS011;36247;51.952;6.146;2024-03-23T10:27:20;8.13;;;2.85;;
29908;SDS011;36247;51.952;6.146;2024-03-23T10:29:47;11.40;;;2.90;;
29908;SDS011;36247;51.952;6.146;2024-03-23T10:32:16;7.43;;;3.20;;
29908;SDS011;36247;51.952;6.146;2024-03-23T10:34:42;9.00;;;3.15;;
29908;SDS011;36247;51.952;6.146;2024-03-23T10:37:08;9.88;;;3.00;;
29908;SDS011;36247;51.952;6.146;2024-03-23T10:39:35;11.63;;;3.10;;
29908;SDS011;36247;51.952;6.146;2024-03-23T10:42:04;10.48;;;3.22;;
29908;SDS011;36247;51.952;6.146;2024-03-23T10:44:40;10.55;;;3.10;;
29908;SDS011;36247;51.952;6.146;2024-03-23T10:47:05;9.45;;;2.97;;
29908;SDS011;36247;51.952;6.146;2024-03-23T10:49:32;10.93;;;3.53;;
29908;SDS011;36247;51.952;6.146;2024-03-23T10:52:02;7.60;;;2.72;;
29908;SDS011;36247;51.952;6.146;2024-03-23T10:54:29;5.85;;;2.22;;
29908;SDS011;36247;51.952;6.146;2024-03-23T10:57:06;6.63;;;2.10;;
29908;SDS011;36247;51.952;6.146;2024-03-23T10:59:36;12.23;;;3.65;;
29908;SDS011;36247;51.952;6.146;2024-03-23T11:02:03;4.18;;;2.30;;
29908;SDS011;36247;51.952;6.146;2024-03-23T11:04:37;9.27;;;2.78;;
29908;SDS011;36247;51.952;6.146;2024-03-23T11:07:49;9.02;;;2.72;;
29908;SDS011;36247;51.952;6.146;2024-03-23T11:09:52;9.32;;;3.10;;
29908;SDS011;36247;51.952;6.146;2024-03-23T11:17:20;8.25;;;3.25;;
29908;SDS011;36247;51.952;6.146;2024-03-23T11:20:08;13.68;;;3.95;;
29908;SDS011;36247;51.952;6.146;2024-03-23T11:25:14;10.50;;;3.10;;
29908;SDS011;36247;51.952;6.146;2024-03-23T11:27:49;9.48;;;2.50;;
29908;SDS011;36247;51.952;6.146;2024-03-23T11:30:17;14.18;;;3.08;;
29908;SDS011;36247;51.952;6.146;2024-03-23T11:35:34;10.27;;;3.17;;
29908;SDS011;36247;51.952;6.146;2024-03-23T11:40:35;9.50;;;2.70;;
29908;SDS011;36247;51.952;6.146;2024-03-23T11:43:03;7.72;;;2.85;;
29908;SDS011;36247;51.952;6.146;2024-03-23T11:45:43;14.50;;;3.20;;
29908;SDS011;36247;51.952;6.146;2024-03-23T11:48:18;7.55;;;2.55;;
29908;SDS011;36247;51.952;6.146;2024-03-23T11:50:48;11.30;;;2.80;;
29908;SDS011;36247;51.952;6.146;2024-03-23T11:53:20;7.43;;;2.58;;
29908;SDS011;36247;51.952;6.146;2024-03-23T11:58:21;11.30;;;2.47;;
29908;SDS011;36247;51.952;6.146;2024-03-23T12:00:56;6.43;;;2.55;;
29908;SDS011;36247;51.952;6.146;2024-03-23T12:03:23;9.43;;;3.22;;
29908;SDS011;36247;51.952;6.146;2024-03-23T12:06:01;7.13;;;2.72;;
29908;SDS011;36247;51.952;6.146;2024-03-23T12:10:53;12.82;;;3.50;;
29908;SDS011;36247;51.952;6.146;2024-03-23T12:13:30;10.90;;;2.40;;
29908;SDS011;36247;51.952;6.146;2024-03-23T12:15:58;11.35;;;3.10;;
29908;SDS011;36247;51.952;6.146;2024-03-23T12:18:35;10.63;;;3.15;;
29908;SDS011;36247;51.952;6.146;2024-03-23T12:21:01;6.35;;;2.55;;
29908;SDS011;36247;51.952;6.146;2024-03-23T12:23:27;7.88;;;2.35;;
29908;SDS011;36247;51.952;6.146;2024-03-23T12:25:52;4.22;;;1.83;;
29908;SDS011;36247;51.952;6.146;2024-03-23T12:28:17;6.40;;;2.22;;
29908;SDS011;36247;51.952;6.146;2024-03-23T12:30:43;6.95;;;3.05;;
29908;SDS011;36247;51.952;6.146;2024-03-23T12:33:08;10.80;;;2.58;;
29908;SDS011;36247;51.952;6.146;2024-03-23T12:35:34;8.23;;;2.42;;
29908;SDS011;36247;51.952;6.146;2024-03-23T12:37:59;6.65;;;2.30;;
29908;SDS011;36247;51.952;6.146;2024-03-23T12:40:25;7.88;;;2.42;;
29908;SDS011;36247;51.952;6.146;2024-03-23T12:42:51;9.00;;;2.30;;
29908;SDS011;36247;51.952;6.146;2024-03-23T12:45:17;5.80;;;2.17;;
29908;SDS011;36247;51.952;6.146;2024-03-23T12:47:42;13.25;;;2.90;;
29908;SDS011;36247;51.952;6.146;2024-03-23T12:50:07;7.53;;;3.08;;
29908;SDS011;36247;51.952;6.146;2024-03-23T12:52:34;6.43;;;2.78;;
29908;SDS011;36247;51.952;6.146;2024-03-23T12:55:00;6.65;;;2.88;;
29908;SDS011;36247;51.952;6.146;2024-03-23T12:57:26;9.02;;;2.88;;
29908;SDS011;36247;51.952;6.146;2024-03-23T12:59:51;11.57;;;2.80;;
29908;SDS011;36247;51.952;6.146;2024-03-23T13:02:21;15.30;;;3.35;;
29908;SDS011;36247;51.952;6.146;2024-03-23T13:04:49;7.80;;;2.40;;
29908;SDS011;36247;51.952;6.146;2024-03-23T13:07:15;9.93;;;3.00;;
29908;SDS011;36247;51.952;6.146;2024-03-23T13:09:42;11.35;;;3.25;;
29908;SDS011;36247;51.952;6.146;2024-03-23T13:12:07;8.07;;;2.65;;
29908;SDS011;36247;51.952;6.146;2024-03-23T13:14:33;12.65;;;2.50;;
29908;SDS011;36247;51.952;6.146;2024-03-23T13:16:59;9.40;;;3.03;;
29908;SDS011;36247;51.952;6.146;2024-03-23T13:19:24;17.35;;;4.05;;
29908;SDS011;36247;51.952;6.146;2024-03-23T13:21:55;11.13;;;3.15;;
29908;SDS011;36247;51.952;6.146;2024-03-23T13:24:22;5.25;;;2.10;;
29908;SDS011;36247;51.952;6.146;2024-03-23T13:26:49;10.80;;;2.78;;
29908;SDS011;36247;51.952;6.146;2024-03-23T13:29:14;9.30;;;2.42;;
29908;SDS011;36247;51.952;6.146;2024-03-23T13:31:40;5.05;;;2.45;;
29908;SDS011;36247;51.952;6.146;2024-03-23T13:34:05;10.05;;;3.70;;
29908;SDS011;36247;51.952;6.146;2024-03-23T13:36:30;7.82;;;2.67;;
29908;SDS011;36247;51.952;6.146;2024-03-23T13:38:56;7.82;;;2.10;;
29908;SDS011;36247;51.952;6.146;2024-03-23T13:41:21;8.90;;;2.70;;
29908;SDS011;36247;51.952;6.146;2024-03-23T13:43:47;13.95;;;2.47;;
29908;SDS011;36247;51.952;6.146;2024-03-23T13:46:12;12.15;;;2.90;;
29908;SDS011;36247;51.952;6.146;2024-03-23T13:48:37;10.70;;;2.63;;
29908;SDS011;36247;51.952;6.146;2024-03-23T13:51:03;9.75;;;2.53;;
29908;SDS011;36247;51.952;6.146;2024-03-23T13:53:29;4.60;;;2.20;;
29908;SDS011;36247;51.952;6.146;2024-03-23T13:55:55;4.03;;;1.80;;
29908;SDS011;36247;51.952;6.146;2024-03-23T13:58:20;6.57;;;2.33;;
29908;SDS011;36247;51.952;6.146;2024-03-23T14:00:46;7.65;;;2.83;;
29908;SDS011;36247;51.952;6.146;2024-03-23T14:03:12;8.40;;;2.40;;
29908;SDS011;36247;51.952;6.146;2024-03-23T14:05:39;5.95;;;1.92;;
29908;SDS011;36247;51.952;6.146;2024-03-23T14:08:08;8.95;;;2.22;;
29908;SDS011;36247;51.952;6.146;2024-03-23T14:10:34;14.60;;;3.20;;
29908;SDS011;36247;51.952;6.146;2024-03-23T14:13:03;10.10;;;2.17;;
29908;SDS011;36247;51.952;6.146;2024-03-23T14:15:28;9.65;;;2.45;;
29908;SDS011;36247;51.952;6.146;2024-03-23T14:17:55;9.15;;;2.30;;
29908;SDS011;36247;51.952;6.146;2024-03-23T14:20:21;9.35;;;2.25;;
29908;SDS011;36247;51.952;6.146;2024-03-23T14:22:47;5.63;;;1.70;;
29908;SDS011;36247;51.952;6.146;2024-03-23T14:25:13;9.68;;;2.53;;
29908;SDS011;36247;51.952;6.146;2024-03-23T14:27:38;8.15;;;2.50;;
29908;SDS011;36247;51.952;6.146;2024-03-23T14:30:03;4.80;;;1.95;;
29908;SDS011;36247;51.952;6.146;2024-03-23T14:32:33;10.75;;;2.58;;
29908;SDS011;36247;51.952;6.146;2024-03-23T14:35:02;11.90;;;3.65;;
29908;SDS011;36247;51.952;6.146;2024-03-23T14:37:29;5.45;;;1.95;;
29908;SDS011;36247;51.952;6.146;2024-03-23T14:39:57;6.47;;;2.47;;
29908;SDS011;36247;51.952;6.146;2024-03-23T14:42:23;7.70;;;2.67;;
29908;SDS011;36247;51.952;6.146;2024-03-23T14:44:49;7.90;;;2.50;;
29908;SDS011;36247;51.952;6.146;2024-03-23T14:47:15;7.28;;;2.20;;
29908;SDS011;36247;51.952;6.146;2024-03-23T14:49:42;9.95;;;2.40;;
29908;SDS011;36247;51.952;6.146;2024-03-23T14:52:10;8.75;;;3.10;;
29908;SDS011;36247;51.952;6.146;2024-03-23T14:54:36;11.80;;;4.10;;
29908;SDS011;36247;51.952;6.146;2024-03-23T14:57:01;9.82;;;2.67;;
29908;SDS011;36247;51.952;6.146;2024-03-23T14:59:27;8.68;;;2.70;;
29908;SDS011;36247;51.952;6.146;2024-03-23T15:01:52;8.32;;;2.95;;
29908;SDS011;36247;51.952;6.146;2024-03-23T15:04:17;7.32;;;2.80;;
29908;SDS011;36247;51.952;6.146;2024-03-23T15:06:43;7.30;;;2.28;;
29908;SDS011;36247;51.952;6.146;2024-03-23T15:09:11;5.88;;;1.90;;
29908;SDS011;36247;51.952;6.146;2024-03-23T15:11:37;6.25;;;2.25;;
29908;SDS011;36247;51.952;6.146;2024-03-23T15:14:02;5.90;;;2.70;;
29908;SDS011;36247;51.952;6.146;2024-03-23T15:16:27;3.78;;;1.95;;
29908;SDS011;36247;51.952;6.146;2024-03-23T15:18:53;7.28;;;2.45;;
29908;SDS011;36247;51.952;6.146;2024-03-23T15:21:18;9.15;;;2.70;;
29908;SDS011;36247;51.952;6.146;2024-03-23T15:23:46;12.63;;;2.38;;
29908;SDS011;36247;51.952;6.146;2024-03-23T15:26:12;7.45;;;2.75;;
29908;SDS011;36247;51.952;6.146;2024-03-23T15:28:37;9.65;;;2.58;;
29908;SDS011;36247;51.952;6.146;2024-03-23T15:31:03;7.25;;;2.33;;
29908;SDS011;36247;51.952;6.146;2024-03-23T15:33:29;9.85;;;2.72;;
29908;SDS011;36247;51.952;6.146;2024-03-23T15:35:58;8.48;;;3.08;;
29908;SDS011;36247;51.952;6.146;2024-03-23T15:38:27;7.97;;;2.78;;
29908;SDS011;36247;51.952;6.146;2024-03-23T15:40:54;9.35;;;2.30;;
29908;SDS011;36247;51.952;6.146;2024-03-23T15:43:19;7.10;;;2.05;;
29908;SDS011;36247;51.952;6.146;2024-03-23T15:45:58;10.52;;;2.75;;